Time;durP1;ratioP1;P1;durP2;ratioP2;P2;SDS_P1;SDS_P2;PMS_P1;PMS_P2;Temp;Humidity;BMP_temperature;BMP_pressure;BME280_temperature;BME280_humidity;BME280_pressure;Samples;Min_cycle;Max_cycle;Signal;HPM_P1;HPM_P2
2021/01/29 00:00:35;;;;;;;;;;;;;;;21.33;22.41;97129.09;4962323;29;628;-74
2021/01/29 00:03:01;;;;;;;;;;;;;;;21.47;22.45;97126.94;4962183;29;639;-74
2021/01/29 00:05:28;;;;;;;;;;;;;;;21.58;22.43;97121.66;4944549;29;935;-74
2021/01/29 00:07:53;;;;;;;;;;;;;;;21.68;22.29;97116.81;4961667;29;1003;-74
2021/01/29 00:10:19;;;;;;;;;;;;;;;21.69;22.32;97115.53;4961829;29;1911;-74
2021/01/29 00:12:45;;;;;;;;;;;;;;;21.72;22.33;97106.13;4961927;29;623;-74
2021/01/29 00:15:12;;;;;;;;;;;;;;;21.69;22.43;97113.50;4961860;29;664;-74
2021/01/29 00:17:38;;;;;;;;;;;;;;;21.95;21.85;97110.41;4961686;29;852;-73
2021/01/29 00:20:04;;;;;;;;;;;;;;;21.47;22.23;97115.63;4961843;29;931;-74
2021/01/29 00:22:29;;;;;;;;;;;;;;;21.07;23.01;97100.16;4961736;29;1049;-74
2021/01/29 00:24:55;;;;;;;;;;;;;;;21.12;22.89;97112.91;4961881;29;589;-73
2021/01/29 00:27:21;;;;;;;;;;;;;;;21.41;22.65;97106.97;4961786;29;707;-74
2021/01/29 00:29:46;;;;;;;;;;;;;;;21.55;22.33;97105.59;4961656;29;1907;-74
2021/01/29 00:32:12;;;;;;;;;;;;;;;21.63;22.18;97101.22;4961514;29;1055;-73
2021/01/29 00:34:59;;;;;;;;;;;;;;;21.58;22.25;97093.34;4961455;29;830;-74
2021/01/29 00:37:40;;;;;;;;;;;;;;;21.74;22.28;97095.13;4961670;29;687;-74
2021/01/29 00:40:05;;;;;;;;;;;;;;;21.53;22.50;97089.06;4961569;29;696;-74
2021/01/29 00:42:31;;;;;;;;;;;;;;;21.79;22.19;97086.78;4961781;29;607;-74
2021/01/29 00:44:56;;;;;;;;;;;;;;;21.64;22.26;97076.53;4944717;29;938;-74
2021/01/29 00:47:22;;;;;;;;;;;;;;;21.77;22.33;97083.66;4961237;29;925;-74
2021/01/29 00:49:47;;;;;;;;;;;;;;;21.86;21.93;97085.69;4961529;29;1976;-73
2021/01/29 00:52:13;;;;;;;;;;;;;;;21.79;22.13;97080.34;4961598;29;638;-73
2021/01/29 00:54:38;;;;;;;;;;;;;;;21.63;22.14;97087.06;4945143;29;1520;-74
2021/01/29 00:57:04;;;;;;;;;;;;;;;21.76;22.15;97079.25;4961599;29;650;-74
2021/01/29 00:59:29;;;;;;;;;;;;;;;21.78;22.15;97093.72;4945062;29;1349;-73
2021/01/29 01:02:21;;;;;;;;;;;;;;;21.52;22.27;97079.00;4958998;29;958;-74
2021/01/29 01:04:46;;;;;;;;;;;;;;;21.21;22.64;97081.06;4961563;29;695;-73
2021/01/29 01:07:12;;;;;;;;;;;;;;;20.99;23.17;97075.47;4961336;29;682;-73
2021/01/29 01:09:44;;;;;;;;;;;;;;;21.28;22.68;97073.06;4961289;29;1914;-74
2021/01/29 01:12:11;;;;;;;;;;;;;;;21.41;22.54;97066.56;4944879;29;1180;-74
2021/01/29 01:14:59;;;;;;;;;;;;;;;21.52;22.48;97067.69;4944697;29;1233;-74
2021/01/29 01:17:41;;;;;;;;;;;;;;;21.61;22.09;97063.31;4944989;29;1129;-72
2021/01/29 01:20:13;;;;;;;;;;;;;;;21.58;22.27;97065.03;4948337;29;1327;-74
2021/01/29 01:22:39;;;;;;;;;;;;;;;21.88;21.95;97056.94;4964741;29;819;-74
2021/01/29 01:25:14;;;;;;;;;;;;;;;21.73;21.84;97057.53;4948203;29;1146;-73
2021/01/29 01:27:46;;;;;;;;;;;;;;;21.76;22.14;97050.13;4964896;29;804;-74
2021/01/29 01:30:33;;;;;;;;;;;;;;;21.68;22.26;97060.97;4964221;29;1459;-74
2021/01/29 01:33:02;;;;;;;;;;;;;;;21.65;22.14;97053.41;4948162;29;1261;-74
2021/01/29 01:35:27;;;;;;;;;;;;;;;21.66;22.31;97055.00;4964791;29;986;-73
2021/01/29 01:37:53;;;;;;;;;;;;;;;21.71;22.19;97067.72;4947851;29;1181;-74
2021/01/29 01:40:42;;;;;;;;;;;;;;;21.79;21.79;97058.47;4964480;29;1602;-74
2021/01/29 01:43:12;;;;;;;;;;;;;;;21.33;22.29;97061.16;4947962;29;1280;-74
2021/01/29 01:45:52;;;;;;;;;;;;;;;21.12;22.58;97056.34;4948295;29;1693;-73
2021/01/29 01:48:22;;;;;;;;;;;;;;;21.23;22.76;97050.25;4964607;29;1980;-74
2021/01/29 01:51:28;;;;;;;;;;;;;;;21.74;21.94;97044.94;4895573;29;1110;-74
2021/01/29 01:53:54;;;;;;;;;;;;;;;22.62;21.04;97053.63;4890096;29;1468;-74
2021/01/29 01:56:35;;;;;;;;;;;;;;;22.07;21.65;97045.16;4914761;29;1174;-74
2021/01/29 01:59:36;;;;;;;;;;;;;;;21.46;22.57;97040.47;4951960;29;1008;-74
2021/01/29 02:02:25;;;;;;;;;;;;;;;21.47;22.39;97042.03;4935045;29;1286;-74
2021/01/29 02:05:19;;;;;;;;;;;;;;;21.51;22.51;97039.88;4937026;29;1045;-73
2021/01/29 02:08:04;;;;;;;;;;;;;;;21.47;22.39;97042.03;4949938;29;1981;-73
2021/01/29 02:10:49;;;;;;;;;;;;;;;21.99;22.05;97037.41;4949661;29;918;-74
2021/01/29 02:13:19;;;;;;;;;;;;;;;22.05;21.99;97035.53;4947691;29;1161;-74
2021/01/29 02:15:51;;;;;;;;;;;;;;;21.78;22.47;97044.78;4947575;29;1302;-73
2021/01/29 02:18:24;;;;;;;;;;;;;;;21.44;22.59;97043.75;4932194;29;1137;-73
2021/01/29 02:21:15;;;;;;;;;;;;;;;21.85;22.15;97045.25;4932549;29;752;-73
2021/01/29 02:24:30;;;;;;;;;;;;;;;21.98;21.84;97052.84;4942086;29;1069;-73
2021/01/29 02:27:19;;;;;;;;;;;;;;;21.43;22.38;97047.06;4946917;29;1424;-74
2021/01/29 02:30:06;;;;;;;;;;;;;;;22.05;21.82;97052.53;4964046;28;1906;-74
2021/01/29 02:32:56;;;;;;;;;;;;;;;21.93;21.98;97044.97;4947341;29;1128;-74
2021/01/29 02:35:41;;;;;;;;;;;;;;;22.16;21.75;97038.72;4947151;29;1345;-74
2021/01/29 02:38:29;;;;;;;;;;;;;;;21.83;21.87;97042.13;4946915;29;1489;-73
2021/01/29 02:41:08;;;;;;;;;;;;;;;21.52;22.44;97047.88;4946952;29;1299;-73
2021/01/29 02:43:41;;;;;;;;;;;;;;;21.60;22.29;97045.53;4947025;29;1303;-73
2021/01/29 02:46:37;;;;;;;;;;;;;;;21.97;21.79;97043.56;4948443;29;1075;-74
2021/01/29 02:49:27;;;;;;;;;;;;;;;21.92;21.93;97040.56;4949595;29;1962;-73
2021/01/29 02:52:33;;;;;;;;;;;;;;;21.86;22.00;97051.72;4963443;29;560;-74
2021/01/29 02:55:27;;;;;;;;;;;;;;;21.36;22.49;97048.16;4961224;29;915;-73
2021/01/29 02:58:00;;;;;;;;;;;;;;;21.32;22.71;97056.78;4946867;29;1117;-72
2021/01/29 03:00:57;;;;;;;;;;;;;;;21.45;22.63;97038.88;4963216;29;819;-73
2021/01/29 03:03:26;;;;;;;;;;;;;;;21.93;21.87;97039.31;4930759;29;1253;-73
2021/01/29 03:06:23;;;;;;;;;;;;;;;21.90;21.87;97040.25;4938121;29;1039;-74
2021/01/29 03:08:59;;;;;;;;;;;;;;;22.15;21.74;97042.03;4946655;29;1982;-74
2021/01/29 03:12:02;;;;;;;;;;;;;;;21.74;22.00;97038.50;4923508;29;1184;-73
2021/01/29 03:14:52;;;;;;;;;;;;;;;21.05;22.74;97045.31;4946259;29;1090;-74
2021/01/29 03:17:58;;;;;;;;;;;;;;;21.46;22.42;97034.81;4893805;29;932;-73
2021/01/29 03:20:50;;;;;;;;;;;;;;;21.74;22.21;97039.28;4904213;29;853;-73
2021/01/29 03:23:34;;;;;;;;;;;;;;;21.83;22.05;97030.78;4940524;29;941;-74
2021/01/29 03:26:20;;;;;;;;;;;;;;;22.20;21.44;97030.84;4948717;29;474;-74
2021/01/29 03:29:06;;;;;;;;;;;;;;;21.55;22.35;97029.16;4962699;29;1902;-72
2021/01/29 03:31:51;;;;;;;;;;;;;;;21.25;23.00;97031.56;4948788;29;474;-74
2021/01/29 03:34:36;;;;;;;;;;;;;;;21.54;22.30;97030.41;4962356;29;852;-73
2021/01/29 03:37:31;;;;;;;;;;;;;;;21.93;22.05;97027.97;4948194;29;978;-74
2021/01/29 03:40:15;;;;;;;;;;;;;;;21.92;21.86;97037.75;4948800;28;485;-74
2021/01/29 03:42:59;;;;;;;;;;;;;;;21.74;22.21;97033.59;4948231;29;594;-74
2021/01/29 03:45:43;;;;;;;;;;;;;;;21.93;21.86;97025.16;4962478;29;494;-74
2021/01/29 03:48:28;;;;;;;;;;;;;;;21.79;22.06;97026.53;4962445;29;1962;-74
2021/01/29 03:51:37;;;;;;;;;;;;;;;21.66;22.37;97032.34;4912031;29;970;-73
2021/01/29 03:54:21;;;;;;;;;;;;;;;21.19;23.02;97033.44;4922556;29;969;-74
2021/01/29 03:57:15;;;;;;;;;;;;;;;21.73;22.14;97020.72;4935003;29;1008;-74
2021/01/29 04:00:17;;;;;;;;;;;;;;;22.31;21.43;97008.47;4962345;29;643;-74
2021/01/29 04:03:09;;;;;;;;;;;;;;;22.28;21.67;97009.44;4948200;29;709;-74
2021/01/29 04:05:57;;;;;;;;;;;;;;;21.70;22.28;97010.31;4961893;29;1086;-74
2021/01/29 04:08:47;;;;;;;;;;;;;;;21.67;22.53;97011.28;4947768;29;1907;-76
2021/01/29 04:11:44;;;;;;;;;;;;;;;21.89;21.86;97004.69;4899016;29;1043;-76
2021/01/29 04:14:39;;;;;;;;;;;;;;;22.01;21.77;97003.75;4931437;29;1274;-76
2021/01/29 04:17:31;;;;;;;;;;;;;;;21.99;21.97;97009.09;4962016;29;664;-76
2021/01/29 04:19:58;;;;;;;;;;;;;;;21.45;22.44;96999.25;4939644;29;1133;-74
2021/01/29 04:22:25;;;;;;;;;;;;;;;21.15;23.07;97004.50;4944973;29;924;-73
2021/01/29 04:24:53;;;;;;;;;;;;;;;21.47;22.75;97003.22;4944887;29;825;-74
2021/01/29 04:27:20;;;;;;;;;;;;;;;21.87;22.00;97002.34;4945309;29;1117;-74
2021/01/29 04:29:47;;;;;;;;;;;;;;;21.89;22.04;97004.69;4961695;29;1965;-73
2021/01/29 04:32:13;;;;;;;;;;;;;;;21.74;22.31;97005.28;4961672;29;612;-74
2021/01/29 04:34:39;;;;;;;;;;;;;;;21.69;22.36;97008.75;4961858;29;663;-73
2021/01/29 04:37:08;;;;;;;;;;;;;;;21.47;22.50;97008.09;4944961;29;872;-73
2021/01/29 04:39:37;;;;;;;;;;;;;;;21.29;22.98;97003.91;4944649;29;946;-74
2021/01/29 04:42:24;;;;;;;;;;;;;;;21.43;22.72;97001.78;4944964;29;990;-73
2021/01/29 04:44:53;;;;;;;;;;;;;;;21.91;22.19;96994.44;4945096;29;616;-74
2021/01/29 04:47:22;;;;;;;;;;;;;;;21.83;22.02;96996.81;4961590;29;635;-74
2021/01/29 04:49:59;;;;;;;;;;;;;;;21.81;22.30;96995.69;4944857;29;1978;-74
2021/01/29 04:52:30;;;;;;;;;;;;;;;21.94;21.90;96989.91;4961284;28;832;-73
2021/01/29 04:55:00;;;;;;;;;;;;;;;21.62;22.55;96997.75;4964786;29;1023;-74
2021/01/29 04:57:29;;;;;;;;;;;;;;;21.08;22.98;96993.47;4965404;29;1105;-74
2021/01/29 05:00:06;;;;;;;;;;;;;;;21.51;22.56;97000.25;4962286;29;1105;-74
2021/01/29 05:03:16;;;;;;;;;;;;;;;21.84;22.27;97003.25;4962326;29;1399;-74
2021/01/29 05:06:21;;;;;;;;;;;;;;;21.79;22.12;97007.50;4964478;29;1070;-74
2021/01/29 05:09:13;;;;;;;;;;;;;;;21.93;22.06;96999.66;4951364;29;1975;-74
2021/01/29 05:12:19;;;;;;;;;;;;;;;21.35;22.63;97000.50;4939770;29;1234;-74
2021/01/29 05:15:08;;;;;;;;;;;;;;;21.36;22.86;97002.09;4965125;29;644;-74
2021/01/29 05:17:52;;;;;;;;;;;;;;;22.00;22.05;96996.50;4954497;29;1139;-73
2021/01/29 05:20:17;;;;;;;;;;;;;;;22.63;21.12;96992.81;4930960;29;1327;-73
2021/01/29 05:22:43;;;;;;;;;;;;;;;22.55;21.33;97005.78;4964427;29;1192;-74
2021/01/29 05:25:17;;;;;;;;;;;;;;;21.67;22.12;96999.94;4964316;29;1164;-74
2021/01/29 05:28:01;;;;;;;;;;;;;;;21.63;22.29;97010.63;4964422;29;1279;-73
2021/01/29 05:30:27;;;;;;;;;;;;;;;21.89;22.31;96999.03;4962616;29;1916;-74
2021/01/29 05:32:52;;;;;;;;;;;;;;;21.82;22.26;96998.09;4964852;29;663;-73
2021/01/29 05:35:27;;;;;;;;;;;;;;;21.88;22.16;96998.25;4964938;29;652;-73
2021/01/29 05:38:02;;;;;;;;;;;;;;;21.79;22.48;97001.84;4964595;29;1014;-74
2021/01/29 05:40:42;;;;;;;;;;;;;;;21.91;22.29;96996.50;4947877;29;896;-74
2021/01/29 05:43:25;;;;;;;;;;;;;;;21.87;22.24;96996.66;4964637;29;839;-74
2021/01/29 05:46:09;;;;;;;;;;;;;;;21.65;22.61;97002.44;4964657;29;687;-74
2021/01/29 05:48:44;;;;;;;;;;;;;;;21.74;22.44;97005.28;4964505;29;1965;-74
2021/01/29 05:51:15;;;;;;;;;;;;;;;21.61;22.33;97001.84;4964421;29;715;-74
2021/01/29 05:53:44;;;;;;;;;;;;;;;21.17;23.04;97004.81;4964370;29;969;-74
2021/01/29 05:56:28;;;;;;;;;;;;;;;21.01;23.29;97005.06;4964436;29;691;-74
2021/01/29 05:58:53;;;;;;;;;;;;;;;21.53;22.80;97006.22;4964190;29;968;-74
2021/01/29 06:01:27;;;;;;;;;;;;;;;21.58;22.65;96995.06;4964346;29;922;-74
2021/01/29 06:04:12;;;;;;;;;;;;;;;21.78;22.34;96994.59;4963895;28;699;-74
2021/01/29 06:06:42;;;;;;;;;;;;;;;21.74;22.50;96993.97;4964340;29;672;-74
2021/01/29 06:09:27;;;;;;;;;;;;;;;21.58;22.58;96999.94;4947607;29;1980;-74
2021/01/29 06:12:11;;;;;;;;;;;;;;;21.90;22.06;97003.41;4964266;29;707;-74
2021/01/29 06:14:55;;;;;;;;;;;;;;;21.77;22.07;96995.88;4964032;29;878;-74
2021/01/29 06:17:36;;;;;;;;;;;;;;;21.82;22.36;97000.91;4963948;29;836;-74
2021/01/29 06:20:02;;;;;;;;;;;;;;;21.87;22.26;97004.38;4964034;29;632;-74
2021/01/29 06:22:46;;;;;;;;;;;;;;;21.65;22.39;97008.09;4964531;29;639;-73
2021/01/29 06:25:19;;;;;;;;;;;;;;;21.81;22.01;96993.69;4964051;29;727;-75
2021/01/29 06:27:51;;;;;;;;;;;;;;;21.87;22.04;97001.53;4947315;29;804;-74
2021/01/29 06:30:35;;;;;;;;;;;;;;;21.84;22.24;96991.94;4963596;29;1969;-74
2021/01/29 06:33:10;;;;;;;;;;;;;;;21.44;22.70;96992.03;4963568;29;898;-75
2021/01/29 06:35:41;;;;;;;;;;;;;;;21.27;22.79;96999.97;4946842;29;990;-74
2021/01/29 06:38:06;;;;;;;;;;;;;;;21.44;22.74;96994.84;4947147;29;695;-74
2021/01/29 06:40:44;;;;;;;;;;;;;;;21.65;22.31;96996.00;4963812;29;671;-74
2021/01/29 06:43:16;;;;;;;;;;;;;;;21.50;22.56;96990.16;4963821;29;612;-74
2021/01/29 06:45:50;;;;;;;;;;;;;;;21.56;22.63;96993.97;4963724;29;643;-74
2021/01/29 06:48:21;;;;;;;;;;;;;;;21.60;22.63;96986.06;4963624;29;1898;-74
2021/01/29 06:50:50;;;;;;;;;;;;;;;21.68;22.39;96981.69;4946959;29;837;-74
2021/01/29 06:53:24;;;;;;;;;;;;;;;21.63;22.47;96971.00;4963028;29;985;-75
2021/01/29 06:56:02;;;;;;;;;;;;;;;21.63;22.41;96979.50;4946909;29;955;-74
2021/01/29 06:58:47;;;;;;;;;;;;;;;21.83;22.25;96979.03;4946425;29;843;-74
2021/01/29 07:01:31;;;;;;;;;;;;;;;21.70;22.53;96979.16;4963535;29;627;-74
2021/01/29 07:04:14;;;;;;;;;;;;;;;21.87;21.97;96979.69;4963738;29;641;-74
2021/01/29 07:06:44;;;;;;;;;;;;;;;21.53;22.40;96989.22;4962974;29;837;-74
2021/01/29 07:09:11;;;;;;;;;;;;;;;21.25;22.79;96989.13;4963040;29;1911;-74
2021/01/29 07:11:49;;;;;;;;;;;;;;;21.41;22.84;96988.09;4946738;29;663;-74
2021/01/29 07:14:20;;;;;;;;;;;;;;;21.64;22.47;96989.56;4963101;29;608;-73
2021/01/29 07:16:54;;;;;;;;;;;;;;;21.64;22.55;96989.56;4962269;28;711;-74
2021/01/29 07:19:19;;;;;;;;;;;;;;;21.65;22.52;96996.00;4946395;29;690;-74
2021/01/29 07:21:57;;;;;;;;;;;;;;;21.74;22.25;96988.31;4962689;29;1002;-74
2021/01/29 07:24:37;;;;;;;;;;;;;;;21.75;22.21;96987.03;4962040;29;1295;-74
2021/01/29 07:27:07;;;;;;;;;;;;;;;21.62;22.48;96980.75;4945542;29;1197;-74
2021/01/29 07:29:37;;;;;;;;;;;;;;;21.90;22.00;96981.56;4929691;29;1980;-74
2021/01/29 07:32:09;;;;;;;;;;;;;;;21.92;21.97;96986.75;4946030;29;671;-74
2021/01/29 07:34:43;;;;;;;;;;;;;;;21.93;22.09;96994.00;4962795;29;588;-74
2021/01/29 07:37:27;;;;;;;;;;;;;;;21.67;22.45;96999.16;4945344;29;1129;-74
2021/01/29 07:39:53;;;;;;;;;;;;;;;21.85;22.24;96994.28;4962347;29;958;-74
2021/01/29 07:42:29;;;;;;;;;;;;;;;21.66;22.33;96989.06;4962733;29;619;-74
2021/01/29 07:44:56;;;;;;;;;;;;;;;21.26;22.76;96987.88;4945472;29;787;-74
2021/01/29 07:47:28;;;;;;;;;;;;;;;21.53;22.40;96989.22;4946058;29;664;-74
2021/01/29 07:50:04;;;;;;;;;;;;;;;21.39;22.59;96989.81;4962267;29;1993;-74
2021/01/29 07:52:36;;;;;;;;;;;;;;;21.60;22.55;96983.25;4945601;29;918;-75
2021/01/29 07:55:15;;;;;;;;;;;;;;;21.52;22.74;96988.44;4962012;29;921;-74
2021/01/29 07:57:59;;;;;;;;;;;;;;;21.60;22.22;96988.91;4945834;29;620;-74
2021/01/29 08:00:26;;;;;;;;;;;;;;;21.63;22.29;96993.66;4962420;29;648;-74
2021/01/29 08:02:59;;;;;;;;;;;;;;;21.68;22.20;96995.06;4945606;29;1287;-75
2021/01/29 08:05:43;;;;;;;;;;;;;;;21.61;22.44;96996.16;4945608;29;668;-74
2021/01/29 08:08:18;;;;;;;;;;;;;;;21.55;22.70;96998.03;4962280;29;664;-74
2021/01/29 08:10:44;;;;;;;;;;;;;;;21.65;22.57;96991.13;4945574;29;771;-74
2021/01/29 08:13:09;;;;;;;;;;;;;;;21.75;22.45;96994.75;4945105;29;1139;-74
2021/01/29 08:15:41;;;;;;;;;;;;;;;21.83;22.26;96990.38;4961821;29;841;-75
2021/01/29 08:18:15;;;;;;;;;;;;;;;21.59;22.43;96999.44;4962046;29;812;-74
2021/01/29 08:20:59;;;;;;;;;;;;;;;21.27;22.81;96995.09;4962370;29;679;-76
2021/01/29 08:23:25;;;;;;;;;;;;;;;21.34;22.89;97005.38;4961979;29;607;-76
2021/01/29 08:25:53;;;;;;;;;;;;;;;21.46;22.70;96995.19;4962142;29;694;-76
2021/01/29 08:28:25;;;;;;;;;;;;;;;21.43;22.66;96998.94;4961311;28;1903;-76
2021/01/29 08:31:09;;;;;;;;;;;;;;;21.66;22.49;96981.41;4961719;29;852;-76
2021/01/29 08:34:04;;;;;;;;;;;;;;;21.72;22.50;96990.06;4961447;29;1190;-76
2021/01/29 08:36:33;;;;;;;;;;;;;;;21.53;22.43;96994.88;4945215;29;847;-76
2021/01/29 08:38:58;;;;;;;;;;;;;;;21.65;22.23;96985.47;4961747;29;719;-76
2021/01/29 08:41:24;;;;;;;;;;;;;;;21.83;22.18;96985.50;4961903;29;686;-74
2021/01/29 08:43:52;;;;;;;;;;;;;;;21.65;22.05;96982.63;4961381;29;1078;-74
2021/01/29 08:46:23;;;;;;;;;;;;;;;21.75;22.29;96972.88;4944697;29;856;-74
2021/01/29 08:49:10;;;;;;;;;;;;;;;21.70;22.43;96987.66;4961554;29;1969;-74
2021/01/29 08:51:36;;;;;;;;;;;;;;;21.73;22.11;96992.41;4945104;29;699;-74
2021/01/29 08:54:10;;;;;;;;;;;;;;;21.49;22.46;96994.25;4961537;29;1104;-75
2021/01/29 08:56:42;;;;;;;;;;;;;;;21.21;22.70;96991.31;4961644;29;667;-74
2021/01/29 08:59:08;;;;;;;;;;;;;;;21.07;22.84;96981.38;4944616;29;1000;-74
2021/01/29 09:01:34;;;;;;;;;;;;;;;21.50;22.49;96981.66;4944202;29;852;-74
2021/01/29 09:04:01;;;;;;;;;;;;;;;21.38;22.75;96985.41;4961517;29;971;-74
2021/01/29 09:06:28;;;;;;;;;;;;;;;21.54;22.38;96979.47;4944923;29;649;-74
2021/01/29 09:08:57;;;;;;;;;;;;;;;21.82;21.98;96966.94;4944274;29;1986;-73
2021/01/29 09:11:25;;;;;;;;;;;;;;;21.59;22.59;96962.66;4944311;29;843;-75
2021/01/29 09:13:57;;;;;;;;;;;;;;;21.74;22.09;96959.22;4944639;29;953;-74
2021/01/29 09:16:26;;;;;;;;;;;;;;;21.84;22.11;96955.91;4944843;29;640;-74
2021/01/29 09:18:55;;;;;;;;;;;;;;;21.82;22.29;96952.78;4961464;29;607;-74
2021/01/29 09:21:24;;;;;;;;;;;;;;;21.79;21.99;96950.09;4961447;29;612;-75
2021/01/29 09:24:02;;;;;;;;;;;;;;;21.77;22.26;96947.75;4945116;29;632;-74
2021/01/29 09:26:30;;;;;;;;;;;;;;;21.78;22.02;96937.19;4961164;29;931;-74
2021/01/29 09:28:58;;;;;;;;;;;;;;;21.46;22.64;96938.59;4961001;29;1964;-74
2021/01/29 09:31:31;;;;;;;;;;;;;;;21.25;22.86;96935.38;4944608;29;1026;-74
2021/01/29 09:34:04;;;;;;;;;;;;;;;21.51;22.77;96923.81;4944731;29;659;-74
2021/01/29 09:36:31;;;;;;;;;;;;;;;21.46;22.71;96915.97;4944804;29;723;-75
2021/01/29 09:38:57;;;;;;;;;;;;;;;21.58;22.21;96915.00;4944846;29;863;-74
2021/01/29 09:41:22;;;;;;;;;;;;;;;21.66;22.54;96912.63;4964606;29;940;-74
2021/01/29 09:43:53;;;;;;;;;;;;;;;21.77;22.41;96907.31;4964707;29;922;-75
2021/01/29 09:46:20;;;;;;;;;;;;;;;21.84;22.22;96916.25;4947455;29;950;-75
2021/01/29 09:48:48;;;;;;;;;;;;;;;21.77;22.31;96910.94;4947474;29;1895;-74
2021/01/29 09:51:21;;;;;;;;;;;;;;;21.70;22.26;96899.13;4964768;29;735;-74
2021/01/29 09:53:52;;;;;;;;;;;;;;;21.76;22.33;96914.22;4947649;29;1081;-74
2021/01/29 09:56:18;;;;;;;;;;;;;;;21.73;22.36;96906.69;4947627;29;973;-74
2021/01/29 09:59:02;;;;;;;;;;;;;;;21.39;22.81;96911.38;4947926;29;1072;-74
2021/01/29 10:01:33;;;;;;;;;;;;;;;20.93;23.08;96901.97;4964408;29;709;-74
2021/01/29 10:04:02;;;;;;;;;;;;;;;21.27;22.78;96887.59;4947865;29;707;-75
2021/01/29 10:06:29;;;;;;;;;;;;;;;21.36;22.79;96895.34;4964426;29;735;-74
2021/01/29 10:08:55;;;;;;;;;;;;;;;21.56;22.52;96878.69;4947748;29;1967;-74
2021/01/29 10:11:26;;;;;;;;;;;;;;;21.56;22.60;96869.41;4947442;29;907;-75
2021/01/29 10:13:52;;;;;;;;;;;;;;;21.49;22.45;96866.88;4964504;29;762;-74
2021/01/29 10:16:23;;;;;;;;;;;;;;;21.64;22.54;96873.50;4964239;29;699;-74
2021/01/29 10:19:07;;;;;;;;;;;;;;;21.70;22.32;96868.75;4964301;29;652;-75
2021/01/29 10:21:45;;;;;;;;;;;;;;;21.72;22.43;96866.25;4947569;29;699;-74
2021/01/29 10:24:17;;;;;;;;;;;;;;;21.56;22.56;96858.88;4963841;29;994;-74
2021/01/29 10:27:09;;;;;;;;;;;;;;;21.61;22.61;96859.50;4946930;29;894;-74
2021/01/29 10:29:34;;;;;;;;;;;;;;;21.72;22.03;96849.28;4960231;29;1894;-74
2021/01/29 10:32:03;;;;;;;;;;;;;;;21.82;22.21;96842.34;4963978;29;663;-74
2021/01/29 10:34:30;;;;;;;;;;;;;;;21.85;22.13;96846.25;4964006;29;624;-74
2021/01/29 10:37:01;;;;;;;;;;;;;;;21.95;22.10;96838.53;4947413;29;667;-74
2021/01/29 10:39:26;;;;;;;;;;;;;;;21.56;22.21;96829.78;4947095;29;1011;-74
2021/01/29 10:41:54;;;;;;;;;;;;;;;21.32;22.89;96823.97;4963495;29;996;-74
2021/01/29 10:44:20;;;;;;;;;;;;;;;21.07;22.90;96827.84;4963639;29;907;-75
2021/01/29 10:47:05;;;;;;;;;;;;;;;21.55;22.57;96822.53;4947188;29;647;-74
2021/01/29 10:49:37;;;;;;;;;;;;;;;21.52;22.62;96818.63;4963491;29;1906;-74
2021/01/29 10:52:21;;;;;;;;;;;;;;;21.59;22.56;96828.81;4946961;29;604;-74
2021/01/29 10:54:47;;;;;;;;;;;;;;;21.68;22.42;96834.47;4963426;29;983;-74
2021/01/29 10:57:21;;;;;;;;;;;;;;;21.77;22.34;96834.47;4963131;29;970;-73
2021/01/29 10:59:53;;;;;;;;;;;;;;;21.65;22.47;96829.75;4946166;29;1001;-74
2021/01/29 11:02:23;;;;;;;;;;;;;;;21.79;22.26;96831.16;4946850;29;820;-74
2021/01/29 11:04:52;;;;;;;;;;;;;;;21.76;22.40;96823.59;4946799;29;667;-74
2021/01/29 11:07:22;;;;;;;;;;;;;;;21.67;22.25;96817.97;4963274;29;635;-74
2021/01/29 11:10:07;;;;;;;;;;;;;;;21.72;22.50;96818.13;4946615;29;1973;-74
2021/01/29 11:12:39;;;;;;;;;;;;;;;21.67;22.27;96824.44;4962890;29;820;-74
2021/01/29 11:15:08;;;;;;;;;;;;;;;21.43;22.33;96821.44;4946134;29;849;-74
2021/01/29 11:17:35;;;;;;;;;;;;;;;21.09;22.95;96819.69;4963092;29;640;-74
2021/01/29 11:20:02;;;;;;;;;;;;;;;21.10;23.15;96820.47;4946357;29;628;-74
2021/01/29 11:22:32;;;;;;;;;;;;;;;21.46;22.86;96825.41;4946503;29;590;-74
2021/01/29 11:25:16;;;;;;;;;;;;;;;21.49;22.49;96813.13;4962446;29;1081;-74
2021/01/29 11:28:14;;;;;;;;;;;;;;;21.54;22.41;96818.13;4962738;29;894;-74
2021/01/29 11:30:46;;;;;;;;;;;;;;;21.59;22.40;96823.16;4910238;29;1974;-74
2021/01/29 11:33:11;;;;;;;;;;;;;;;21.63;22.41;96809.66;4946148;29;703;-74
2021/01/29 11:35:46;;;;;;;;;;;;;;;21.67;22.33;96803.81;4946078;29;702;-74
2021/01/29 11:38:30;;;;;;;;;;;;;;;21.73;22.37;96810.41;4962703;29;636;-74
2021/01/29 11:41:16;;;;;;;;;;;;;;;21.45;22.71;96807.63;4963010;29;636;-74
2021/01/29 11:43:47;;;;;;;;;;;;;;;21.44;22.61;96802.44;4945734;29;885;-74
2021/01/29 11:46:22;;;;;;;;;;;;;;;21.62;22.55;96805.25;4945591;29;824;-74
2021/01/29 11:48:47;;;;;;;;;;;;;;;21.66;22.43;96800.22;4946088;29;1973;-74
2021/01/29 11:51:17;;;;;;;;;;;;;;;21.69;22.31;96799.25;4962544;29;657;-75
2021/01/29 11:54:01;;;;;;;;;;;;;;;21.83;22.07;96798.59;4962269;29;1113;-74
2021/01/29 11:56:39;;;;;;;;;;;;;;;21.32;22.76;96787.97;4962325;29;698;-75
2021/01/29 11:59:07;;;;;;;;;;;;;;;21.13;22.93;96786.38;4962124;29;916;-74
2021/01/29 12:01:43;;;;;;;;;;;;;;;21.26;23.05;96784.19;4945176;28;875;-74
2021/01/29 12:04:22;;;;;;;;;;;;;;;21.36;22.66;96775.72;4945717;29;711;-75
2021/01/29 12:06:56;;;;;;;;;;;;;;;21.42;22.78;96773.81;4962173;29;839;-74
2021/01/29 12:09:22;;;;;;;;;;;;;;;21.67;22.46;96772.69;4962085;29;1902;-74
2021/01/29 12:11:57;;;;;;;;;;;;;;;21.62;22.34;96759.97;4945669;29;659;-74
2021/01/29 12:14:27;;;;;;;;;;;;;;;21.64;22.47;96756.63;4961951;29;825;-74
2021/01/29 12:16:53;;;;;;;;;;;;;;;21.63;22.59;96760.75;4961943;29;981;-75
2021/01/29 12:19:25;;;;;;;;;;;;;;;21.74;22.45;96766.69;4962005;29;1013;-74
2021/01/29 12:22:10;;;;;;;;;;;;;;;21.53;22.43;96768.47;4962334;29;750;-73
2021/01/29 12:25:05;;;;;;;;;;;;;;;21.53;22.43;96774.91;4961407;29;1386;-74
2021/01/29 12:27:44;;;;;;;;;;;;;;;21.58;22.38;96771.44;4877781;29;1176;-75
2021/01/29 12:30:12;;;;;;;;;;;;;;;21.78;22.27;96770.13;4945095;29;1974;-74
2021/01/29 12:32:56;;;;;;;;;;;;;;;21.54;22.48;96770.03;4961647;29;894;-75
2021/01/29 12:35:23;;;;;;;;;;;;;;;21.57;22.84;96763.44;4961825;29;627;-74
2021/01/29 12:38:00;;;;;;;;;;;;;;;21.68;22.50;96757.25;4961826;29;726;-74
2021/01/29 12:40:33;;;;;;;;;;;;;;;21.58;22.26;96759.34;4945131;29;670;-74
2021/01/29 12:43:03;;;;;;;;;;;;;;;21.73;22.45;96754.56;4945168;29;682;-74
2021/01/29 12:45:30;;;;;;;;;;;;;;;21.37;22.89;96737.69;4944968;29;900;-74
2021/01/29 12:48:19;;;;;;;;;;;;;;;21.36;23.01;96747.44;4961447;29;879;-75
2021/01/29 12:50:47;;;;;;;;;;;;;;;21.55;22.74;96748.94;4948943;29;1907;-74
2021/01/29 12:53:33;;;;;;;;;;;;;;;21.54;22.73;96733.22;4961562;29;1034;-74
2021/01/29 12:56:17;;;;;;;;;;;;;;;21.44;22.81;96731.69;4961210;29;1435;-74
2021/01/29 12:58:45;;;;;;;;;;;;;;;21.67;22.59;96733.84;4961530;29;703;-74
2021/01/29 13:01:15;;;;;;;;;;;;;;;21.68;22.53;96729.75;4961250;29;851;-74
2021/01/29 13:03:51;;;;;;;;;;;;;;;21.52;22.80;96739.38;4944660;29;970;-74
2021/01/29 13:06:37;;;;;;;;;;;;;;;21.62;22.66;96730.88;4944939;29;1072;-74
2021/01/29 13:09:06;;;;;;;;;;;;;;;21.67;22.45;96718.91;4960904;29;2029;-74
2021/01/29 13:11:50;;;;;;;;;;;;;;;21.78;22.35;96708.63;4961734;29;656;-75
2021/01/29 13:14:23;;;;;;;;;;;;;;;21.45;22.85;96707.78;4962431;28;616;-74
2021/01/29 13:16:49;;;;;;;;;;;;;;;21.82;22.53;96705.63;4948539;29;1119;-74
2021/01/29 13:19:27;;;;;;;;;;;;;;;21.81;22.30;96687.88;4964935;29;858;-74
2021/01/29 13:21:54;;;;;;;;;;;;;;;22.02;22.17;96703.03;4965192;29;982;-74
2021/01/29 13:24:19;;;;;;;;;;;;;;;21.32;23.06;96697.44;4965248;29;715;-75
2021/01/29 13:26:45;;;;;;;;;;;;;;;21.20;23.20;96700.44;4965153;29;754;-74
2021/01/29 13:29:14;;;;;;;;;;;;;;;21.27;23.30;96683.91;4948358;29;1906;-74
2021/01/29 13:31:39;;;;;;;;;;;;;;;21.34;23.08;96696.94;4964669;29;1033;-75
2021/01/29 13:34:20;;;;;;;;;;;;;;;21.41;22.77;96687.38;4947782;29;900;-74
2021/01/29 13:37:05;;;;;;;;;;;;;;;21.46;22.94;96683.91;4948394;29;659;-74
2021/01/29 13:39:40;;;;;;;;;;;;;;;21.44;22.98;96680.75;4947548;29;896;-74
2021/01/29 13:42:21;;;;;;;;;;;;;;;21.64;22.66;96678.16;4948196;29;699;-75
2021/01/29 13:44:53;;;;;;;;;;;;;;;21.74;22.24;96688.19;4964812;29;687;-74
2021/01/29 13:47:25;;;;;;;;;;;;;;;21.67;22.57;96694.22;4948233;29;1029;-74